createdAt,value
2022-10-01T00:00:48.691Z,81.06
2022-10-01T00:03:12.317Z,80.40
2022-10-01T00:05:35.924Z,81.65
2022-10-01T00:07:59.439Z,82.02
2022-10-01T00:10:23.397Z,82.52
2022-10-01T00:12:50.016Z,80.70
2022-10-01T00:15:14.423Z,79.89
2022-10-01T00:17:39.558Z,80.51
2022-10-01T00:20:10.677Z,81.41
2022-10-01T00:22:38.516Z,80.03
2022-10-01T00:25:02.094Z,81.07
2022-10-01T00:27:25.714Z,80.56
2022-10-01T00:29:49.270Z,79.81
2022-10-01T00:32:12.844Z,81.88
2022-10-01T00:34:37.801Z,82.30
2022-10-01T00:37:01.564Z,83.62
2022-10-01T00:39:25.147Z,85.01
2022-10-01T00:41:48.752Z,83.57
2022-10-01T00:44:35.466Z,83.83
2022-10-01T00:47:06.059Z,81.83
2022-10-01T00:49:33.606Z,81.51
2022-10-01T00:52:03.050Z,83.71
2022-10-01T00:54:39.218Z,82.02
2022-10-01T00:57:04.132Z,83.06
2022-10-01T00:59:29.123Z,84.41
2022-10-01T01:01:52.999Z,83.36
2022-10-01T01:04:17.407Z,83.15
2022-10-01T01:06:41.254Z,84.67
2022-10-01T01:09:06.197Z,85.79
2022-10-01T01:11:38.967Z,83.44
2022-10-01T01:14:10.766Z,83.20
2022-10-01T01:16:39.527Z,83.64
2022-10-01T01:19:10.201Z,83.37
2022-10-01T01:21:37.182Z,84.22
2022-10-01T01:24:45.623Z,84.15
2022-10-01T01:27:31.384Z,83.29
2022-10-01T01:30:04.780Z,83.74
2022-10-01T01:32:34.166Z,84.89
2022-10-01T01:35:02.238Z,84.07
2022-10-01T01:37:32.242Z,84.04
2022-10-01T01:39:58.155Z,82.84
2022-10-01T01:42:28.971Z,84.52
2022-10-01T01:44:58.033Z,83.59
2022-10-01T01:47:24.541Z,84.88
2022-10-01T01:49:50.227Z,83.30
2022-10-01T01:52:17.316Z,84.32
2022-10-01T01:54:41.747Z,84.63
2022-10-01T01:57:07.424Z,84.42
2022-10-01T01:59:31.616Z,84.76
2022-10-01T02:01:56.638Z,84.75
2022-10-01T02:04:26.062Z,85.04
2022-10-01T02:07:36.055Z,86.57
2022-10-01T02:10:14.554Z,85.38
2022-10-01T02:12:52.751Z,86.03
2022-10-01T02:15:28.799Z,86.33
2022-10-01T02:18:00.833Z,87.02
2022-10-01T02:20:31.639Z,86.30
2022-10-01T02:23:00.099Z,86.88
2022-10-01T02:25:27.112Z,87.03
2022-10-01T02:27:59.287Z,86.82
2022-10-01T02:30:23.214Z,87.75
2022-10-01T02:32:48.894Z,88.08
2022-10-01T02:35:18.235Z,89.50
2022-10-01T02:37:44.356Z,88.03
2022-10-01T02:40:15.861Z,88.92
2022-10-01T02:42:41.181Z,87.59
2022-10-01T02:45:07.591Z,88.53
2022-10-01T02:47:36.211Z,89.84
2022-10-01T02:49:59.759Z,88.31
2022-10-01T02:52:32.422Z,89.66
2022-10-01T02:55:01.669Z,88.74
2022-10-01T02:57:24.629Z,89.62
2022-10-01T02:59:48.219Z,88.36
2022-10-01T03:02:12.313Z,89.45
2022-10-01T03:04:35.978Z,89.09
2022-10-01T03:07:03.578Z,88.72
2022-10-01T03:09:28.474Z,87.54
2022-10-01T03:11:51.999Z,88.07
2022-10-01T03:14:15.591Z,88.21
2022-10-01T03:16:39.330Z,88.88
2022-10-01T03:19:02.914Z,89.60
2022-10-01T03:21:26.958Z,89.60
2022-10-01T03:23:50.516Z,88.88
2022-10-01T03:26:15.400Z,89.04
2022-10-01T03:28:38.981Z,90.44
2022-10-01T03:31:10.453Z,90.29
2022-10-01T03:33:34.167Z,89.12
2022-10-01T03:35:57.675Z,89.54
2022-10-01T03:38:21.242Z,89.68
2022-10-01T03:40:44.742Z,89.15
2022-10-01T03:43:09.695Z,89.22
2022-10-01T03:45:33.264Z,88.46
2022-10-01T03:47:56.843Z,89.03
2022-10-01T03:50:21.071Z,88.20
2022-10-01T03:52:44.925Z,88.15
2022-10-01T03:55:09.867Z,88.50
2022-10-01T03:57:33.472Z,88.56
2022-10-01T03:59:58.358Z,87.75
2022-10-01T04:02:22.075Z,88.46
2022-10-01T04:04:45.665Z,87.46
2022-10-01T04:07:09.263Z,87.69
2022-10-01T04:09:32.825Z,88.53
2022-10-01T04:11:56.463Z,89.22
2022-10-01T04:14:19.995Z,89.11
2022-10-01T04:16:45.248Z,88.56
2022-10-01T04:19:08.787Z,88.39
2022-10-01T04:21:32.774Z,88.62
2022-10-01T04:23:56.487Z,88.84
2022-10-01T04:26:20.307Z,88.53
2022-10-01T04:28:45.228Z,88.84
2022-10-01T04:31:27.315Z,88.25
2022-10-01T04:33:52.571Z,87.72
2022-10-01T04:36:16.327Z,87.39
2022-10-01T04:38:40.088Z,87.30
2022-10-01T04:41:03.801Z,87.39
2022-10-01T04:43:27.596Z,87.05
2022-10-01T04:45:51.263Z,87.13
2022-10-01T04:48:14.993Z,86.67
2022-10-01T04:50:40.244Z,87.36
2022-10-01T04:53:03.951Z,87.60
2022-10-01T04:55:28.257Z,87.70
2022-10-01T04:57:52.166Z,88.00
2022-10-01T05:00:18.662Z,87.60
2022-10-01T05:02:45.956Z,86.98
2022-10-01T05:05:10.409Z,87.76
2022-10-01T05:07:36.515Z,87.01
2022-10-01T05:10:00.213Z,87.59
2022-10-01T05:12:25.495Z,86.64
2022-10-01T05:14:49.129Z,87.23
2022-10-01T05:17:12.780Z,86.77
2022-10-01T05:19:36.410Z,86.66
2022-10-01T05:22:00.150Z,86.53
2022-10-01T05:24:25.241Z,86.75
2022-10-01T05:26:48.926Z,86.34
2022-10-01T05:29:15.259Z,86.27
2022-10-01T05:31:41.491Z,85.24
2022-10-01T05:34:05.146Z,84.56
2022-10-01T05:36:28.829Z,84.99
2022-10-01T05:38:52.455Z,86.56
2022-10-01T05:41:17.541Z,85.69
2022-10-01T05:43:41.189Z,85.29
2022-10-01T05:46:05.961Z,85.70
2022-10-01T05:48:31.682Z,85.41
2022-10-01T05:50:55.437Z,85.28
2022-10-01T05:53:19.176Z,86.66
2022-10-01T05:55:43.089Z,84.97
2022-10-01T05:58:10.953Z,84.33
2022-10-01T06:00:36.370Z,84.94
2022-10-01T06:03:01.524Z,85.08
2022-10-01T06:05:25.921Z,84.13
2022-10-01T06:07:49.758Z,84.25
2022-10-01T06:10:13.529Z,84.37
2022-10-01T06:12:37.201Z,84.32
2022-10-01T06:15:02.158Z,83.31
2022-10-01T06:17:25.791Z,83.13
2022-10-01T06:19:49.991Z,83.29
2022-10-01T06:22:13.474Z,83.70
2022-10-01T06:24:38.097Z,83.49
2022-10-01T06:27:01.761Z,82.93
2022-10-01T06:29:25.478Z,83.93
2022-10-01T06:31:50.459Z,82.96
2022-10-01T06:34:14.075Z,82.13
2022-10-01T06:36:37.581Z,82.15
2022-10-01T06:39:01.279Z,82.53
2022-10-01T06:41:24.943Z,81.98
2022-10-01T06:43:51.019Z,81.89
2022-10-01T06:46:14.585Z,83.03
2022-10-01T06:48:39.554Z,82.10
2022-10-01T06:51:03.389Z,81.72
2022-10-01T06:53:28.251Z,81.86
2022-10-01T06:55:52.037Z,81.93
2022-10-01T06:58:17.687Z,81.53
2022-10-01T07:00:41.345Z,81.06
2022-10-01T07:03:06.583Z,82.47
2022-10-01T07:05:31.658Z,81.64
2022-10-01T07:07:55.677Z,81.50
2022-10-01T07:10:21.084Z,81.40
2022-10-01T07:12:46.148Z,81.66
2022-10-01T07:15:10.880Z,81.67
2022-10-01T07:17:34.493Z,80.76
2022-10-01T07:19:58.178Z,79.88
2022-10-01T07:22:24.269Z,80.39
2022-10-01T07:24:48.282Z,79.97
2022-10-01T07:27:11.861Z,80.45
2022-10-01T07:29:35.539Z,79.88
2022-10-01T07:32:01.265Z,79.91
2022-10-01T07:34:25.131Z,80.30
2022-10-01T07:36:50.718Z,79.63
2022-10-01T07:39:15.614Z,78.90
2022-10-01T07:41:39.314Z,79.28
2022-10-01T07:44:04.233Z,78.68
2022-10-01T07:46:31.439Z,78.56
2022-10-01T07:48:57.563Z,79.50
2022-10-01T07:51:21.127Z,78.53
2022-10-01T07:53:44.689Z,77.57
2022-10-01T07:56:09.626Z,77.20
2022-10-01T07:58:33.195Z,77.18
2022-10-01T08:00:58.720Z,78.29
2022-10-01T08:03:22.484Z,77.08
2022-10-01T08:05:46.520Z,76.83
2022-10-01T08:08:10.860Z,77.12
2022-10-01T08:10:36.569Z,77.03
2022-10-01T08:13:08.829Z,76.57
2022-10-01T08:15:32.437Z,75.79
2022-10-01T08:17:55.951Z,74.42
2022-10-01T08:20:21.512Z,75.27
2022-10-01T08:22:45.038Z,74.62
2022-10-01T08:25:09.492Z,75.85
2022-10-01T08:27:33.054Z,74.71
2022-10-01T08:29:58.041Z,75.65
2022-10-01T08:32:22.137Z,74.64
2022-10-01T08:34:46.696Z,73.11
2022-10-01T08:37:10.226Z,75.35
2022-10-01T08:39:33.799Z,73.09
2022-10-01T08:42:05.893Z,74.46
2022-10-01T08:44:34.759Z,73.68
2022-10-01T08:47:06.722Z,74.52
2022-10-01T08:49:36.095Z,73.53
2022-10-01T08:52:04.992Z,72.45
2022-10-01T08:54:36.442Z,73.30
2022-10-01T08:57:03.099Z,73.72
2022-10-01T08:59:41.807Z,72.27
2022-10-01T09:02:20.171Z,71.87
2022-10-01T09:04:43.815Z,71.65
2022-10-01T09:07:22.843Z,71.47
2022-10-01T09:09:56.214Z,70.79
2022-10-01T09:12:33.724Z,70.73
2022-10-01T09:15:18.187Z,71.72
2022-10-01T09:18:01.051Z,70.90
2022-10-01T09:20:28.840Z,70.92
2022-10-01T09:23:14.837Z,71.05
2022-10-01T09:25:39.876Z,69.51
2022-10-01T09:28:13.124Z,69.44
2022-10-01T09:30:38.555Z,69.63
2022-10-01T09:33:13.321Z,69.70
2022-10-01T09:35:44.170Z,69.56
2022-10-01T09:38:18.517Z,70.12
2022-10-01T09:40:54.840Z,70.10
2022-10-01T09:43:22.000Z,72.50
2022-10-01T09:45:45.567Z,70.93
2022-10-01T09:48:24.799Z,71.27
2022-10-01T09:50:55.637Z,71.96
2022-10-01T09:53:24.499Z,71.80
2022-10-01T09:55:55.635Z,73.26
2022-10-01T09:58:22.741Z,73.08
2022-10-01T10:00:48.407Z,72.91
2022-10-01T10:03:25.354Z,74.32
2022-10-01T10:05:49.589Z,74.69
2022-10-01T10:08:16.303Z,76.43
2022-10-01T10:10:42.106Z,76.74
2022-10-01T10:13:19.553Z,77.98
2022-10-01T10:15:52.760Z,78.42
2022-10-01T10:18:23.026Z,79.15
2022-10-01T10:20:54.060Z,78.25
2022-10-01T10:23:20.989Z,78.58
2022-10-01T10:25:44.851Z,80.16
2022-10-01T10:28:23.583Z,82.20
2022-10-01T10:30:47.707Z,85.02
2022-10-01T10:33:15.973Z,85.76
2022-10-01T10:35:39.624Z,86.97
2022-10-01T10:38:04.580Z,85.55
2022-10-01T10:40:32.691Z,88.72
2022-10-01T10:42:59.088Z,87.97
2022-10-01T10:45:33.493Z,88.25
2022-10-01T10:47:57.906Z,89.95
2022-10-01T10:50:32.562Z,88.57
2022-10-01T10:52:56.839Z,90.05
2022-10-01T10:55:28.326Z,90.22
2022-10-01T10:57:57.282Z,92.05
2022-10-01T11:00:24.644Z,92.43
2022-10-01T11:02:55.682Z,90.95
2022-10-01T11:05:21.828Z,90.84
2022-10-01T11:07:46.779Z,92.14
2022-10-01T11:10:28.255Z,91.76
2022-10-01T11:13:39.886Z,92.44
2022-10-01T11:16:26.623Z,91.34
2022-10-01T11:19:07.783Z,93.65
2022-10-01T11:22:05.197Z,91.87
2022-10-01T11:24:59.053Z,92.27
2022-10-01T11:27:36.613Z,91.90
2022-10-01T11:30:07.963Z,91.18
2022-10-01T11:32:40.049Z,93.81
2022-10-01T11:35:22.580Z,92.82
2022-10-01T11:38:05.294Z,92.83
2022-10-01T11:40:36.900Z,92.30
2022-10-01T11:43:10.126Z,92.44
2022-10-01T11:45:41.273Z,92.69
2022-10-01T11:48:09.579Z,93.27
2022-10-01T11:50:39.225Z,92.59
2022-10-01T11:53:10.931Z,91.48
2022-10-01T11:55:58.486Z,92.92
2022-10-01T11:58:53.204Z,92.02
2022-10-01T12:01:23.257Z,92.01
2022-10-01T12:04:04.051Z,91.22
2022-10-01T12:06:34.569Z,92.10
2022-10-01T12:09:02.159Z,91.82
2022-10-01T12:11:31.132Z,92.47
2022-10-01T12:14:04.294Z,92.42
2022-10-01T12:16:43.174Z,92.39
2022-10-01T12:19:14.747Z,92.43
2022-10-01T12:21:43.038Z,91.99
2022-10-01T12:24:13.279Z,92.30
2022-10-01T12:26:48.583Z,92.50
2022-10-01T12:29:20.323Z,94.18
2022-10-01T12:31:53.675Z,94.86
2022-10-01T12:34:27.024Z,94.50
2022-10-01T12:37:07.584Z,95.23
2022-10-01T12:39:51.990Z,96.88
2022-10-01T12:42:46.323Z,96.56
2022-10-01T12:45:26.795Z,96.25
2022-10-01T12:48:01.556Z,98.64
2022-10-01T12:50:41.680Z,99.02
2022-10-01T12:53:24.826Z,99.68
2022-10-01T12:56:05.234Z,97.67
2022-10-01T12:59:24.261Z,97.71
2022-10-01T13:02:11.897Z,98.18
2022-10-01T13:05:06.752Z,97.27
2022-10-01T13:07:50.260Z,97.02
2022-10-01T13:10:33.234Z,96.39
2022-10-01T13:13:06.469Z,96.64
2022-10-01T13:15:35.644Z,97.06
2022-10-01T13:18:13.783Z,96.31
2022-10-01T13:20:42.227Z,95.21
2022-10-01T13:23:11.280Z,95.46
2022-10-01T13:25:42.801Z,95.83
2022-10-01T13:28:17.973Z,97.15
2022-10-01T13:30:59.202Z,97.00
2022-10-01T13:33:27.309Z,97.03
2022-10-01T13:35:57.790Z,96.79
2022-10-01T13:38:31.441Z,95.42
2022-10-01T13:41:01.385Z,96.73
2022-10-01T13:43:26.075Z,97.04
2022-10-01T13:45:52.402Z,95.98
2022-10-01T13:48:20.519Z,94.38
2022-10-01T13:50:58.615Z,94.48
2022-10-01T13:53:26.028Z,94.65
2022-10-01T13:55:50.668Z,92.96
2022-10-01T13:58:39.468Z,94.56
2022-10-01T14:01:05.810Z,92.84
2022-10-01T14:03:45.776Z,93.86
2022-10-01T14:06:19.742Z,94.37
2022-10-01T14:08:49.158Z,95.09
2022-10-01T14:11:34.226Z,94.70
2022-10-01T14:14:27.762Z,94.02
2022-10-01T14:16:51.502Z,95.19
2022-10-01T14:19:21.215Z,94.57
2022-10-01T14:21:59.580Z,94.69
2022-10-01T14:24:34.106Z,95.45
2022-10-01T14:27:04.163Z,96.23
2022-10-01T14:29:42.234Z,96.16
2022-10-01T14:32:23.037Z,95.65
2022-10-01T14:35:10.362Z,94.80
2022-10-01T14:37:40.300Z,95.86
2022-10-01T14:40:15.818Z,95.80
2022-10-01T14:42:39.364Z,95.74
2022-10-01T14:45:02.922Z,96.81
2022-10-01T14:47:34.971Z,97.06
2022-10-01T14:49:58.535Z,96.48
2022-10-01T14:52:25.563Z,96.13
2022-10-01T14:54:59.848Z,95.25
2022-10-01T14:57:31.546Z,95.06
2022-10-01T14:59:55.647Z,95.55
2022-10-01T15:02:21.805Z,94.48
2022-10-01T15:04:48.325Z,94.78
2022-10-01T15:07:17.101Z,93.52
2022-10-01T15:09:40.678Z,94.06
2022-10-01T15:12:07.431Z,95.81
2022-10-01T15:14:32.066Z,94.44
2022-10-01T15:16:55.838Z,95.02
2022-10-01T15:19:22.957Z,95.60
2022-10-01T15:21:51.933Z,95.53
2022-10-01T15:24:25.926Z,94.63
2022-10-01T15:26:50.971Z,95.35
2022-10-01T15:29:17.674Z,95.94
2022-10-01T15:31:42.129Z,95.17
2022-10-01T15:34:08.431Z,95.56
2022-10-01T15:36:33.021Z,93.55
2022-10-01T15:38:57.294Z,94.18
2022-10-01T15:41:31.859Z,95.39
2022-10-01T15:43:56.354Z,95.38
2022-10-01T15:46:32.413Z,94.70
2022-10-01T15:49:20.108Z,94.14
2022-10-01T15:52:16.749Z,94.83
2022-10-01T15:54:42.871Z,92.49
2022-10-01T15:57:07.405Z,92.95
2022-10-01T15:59:31.612Z,92.36
2022-10-01T16:01:57.408Z,92.46
2022-10-01T16:04:22.959Z,93.62
2022-10-01T16:06:49.962Z,93.00
2022-10-01T16:09:17.679Z,92.94
2022-10-01T16:11:55.162Z,92.91
2022-10-01T16:14:32.247Z,92.22
2022-10-01T16:17:34.846Z,92.17
2022-10-01T16:20:01.355Z,92.78
2022-10-01T16:22:28.419Z,93.24
2022-10-01T16:24:54.262Z,95.05
2022-10-01T16:27:19.942Z,92.09
2022-10-01T16:29:44.323Z,91.44
2022-10-01T16:32:14.412Z,92.85
2022-10-01T16:34:37.978Z,94.56
2022-10-01T16:37:01.483Z,93.49
2022-10-01T16:39:25.371Z,92.20
2022-10-01T16:42:12.032Z,93.06
2022-10-01T16:44:39.737Z,93.64
2022-10-01T16:47:03.341Z,92.51
2022-10-01T16:49:28.410Z,92.84
2022-10-01T16:51:54.399Z,93.94
2022-10-01T16:54:25.154Z,94.76
2022-10-01T16:56:50.611Z,93.08
2022-10-01T16:59:14.329Z,93.06
2022-10-01T17:01:37.969Z,94.65
2022-10-01T17:04:01.793Z,96.37
2022-10-01T17:06:26.858Z,94.35
2022-10-01T17:08:50.399Z,94.36
2022-10-01T17:11:14.250Z,92.67
2022-10-01T17:13:37.839Z,94.14
2022-10-01T17:16:02.337Z,93.35
2022-10-01T17:18:26.026Z,93.06
2022-10-01T17:20:49.915Z,95.47
2022-10-01T17:23:18.105Z,94.85
2022-10-01T17:25:43.703Z,95.19
2022-10-01T17:28:11.999Z,93.56
2022-10-01T17:30:36.367Z,94.60
2022-10-01T17:33:01.259Z,95.57
2022-10-01T17:35:25.207Z,96.25
2022-10-01T17:37:48.747Z,95.74
2022-10-01T17:40:14.194Z,96.22
2022-10-01T17:42:38.081Z,96.35
2022-10-01T17:45:02.758Z,97.88
2022-10-01T17:47:26.468Z,96.65
2022-10-01T17:49:49.991Z,98.59
2022-10-01T17:52:13.589Z,99.01
2022-10-01T17:54:38.348Z,97.61
2022-10-01T17:57:03.261Z,97.63
2022-10-01T17:59:26.863Z,97.74
2022-10-01T18:01:52.735Z,99.38
2022-10-01T18:04:17.266Z,100.00
2022-10-01T18:06:41.506Z,99.99
2022-10-01T18:09:05.556Z,100.00
2022-10-01T18:11:29.887Z,100.00
2022-10-01T18:13:55.020Z,100.00
2022-10-01T18:16:19.560Z,99.64
2022-10-01T18:21:28.648Z,98.89
2022-10-01T18:23:52.167Z,99.69
2022-10-01T18:26:15.956Z,100.00
2022-10-01T18:28:39.483Z,100.00
2022-10-01T18:31:26.573Z,100.00
2022-10-01T18:33:53.066Z,98.93
2022-10-01T18:36:27.468Z,100.00
2022-10-01T18:38:54.243Z,100.00
2022-10-01T18:41:28.025Z,100.00
2022-10-01T18:43:52.050Z,98.66
2022-10-01T18:46:39.010Z,98.40
2022-10-01T18:49:18.511Z,100.00
2022-10-01T18:51:57.107Z,99.97
2022-10-01T18:55:03.685Z,100.00
2022-10-01T18:57:51.637Z,99.59
2022-10-01T19:00:17.646Z,99.32
2022-10-01T19:03:18.019Z,100.00
2022-10-01T19:06:17.604Z,100.00
2022-10-01T19:09:08.555Z,99.01
2022-10-01T19:11:43.531Z,99.47
2022-10-01T19:14:33.727Z,99.60
2022-10-01T19:17:10.040Z,98.72
2022-10-01T19:19:44.605Z,98.31
2022-10-01T19:22:19.371Z,98.78
2022-10-01T19:24:57.913Z,98.83
2022-10-01T19:27:41.654Z,99.42
2022-10-01T19:30:10.347Z,99.33
2022-10-01T19:32:42.537Z,99.71
2022-10-01T19:35:20.105Z,100.00
2022-10-01T19:37:49.478Z,100.00
2022-10-01T19:40:26.234Z,100.00
2022-10-01T19:42:56.726Z,100.00
2022-10-01T19:45:27.067Z,100.00
2022-10-01T19:48:02.802Z,100.00
2022-10-01T19:50:34.375Z,100.00
2022-10-01T19:53:01.475Z,100.00
2022-10-01T19:55:26.533Z,100.00
2022-10-01T19:57:51.074Z,100.00
2022-10-01T20:00:19.540Z,100.00
2022-10-01T20:02:54.667Z,100.00
2022-10-01T20:05:29.411Z,100.00
2022-10-01T20:08:01.836Z,100.00
2022-10-01T20:10:34.579Z,100.00
2022-10-01T20:13:18.726Z,100.00
2022-10-01T20:15:49.973Z,100.00
2022-10-01T20:18:27.974Z,100.00
2022-10-01T20:21:09.328Z,99.49
2022-10-01T20:23:44.626Z,100.00
2022-10-01T20:26:18.859Z,100.00
2022-10-01T20:28:52.313Z,99.48
2022-10-01T20:31:22.213Z,100.00
2022-10-01T20:34:01.514Z,99.24
2022-10-01T20:36:35.402Z,100.00
2022-10-01T20:39:05.796Z,100.00
2022-10-01T20:41:31.676Z,100.00
2022-10-01T20:44:00.347Z,100.00
2022-10-01T20:46:31.244Z,99.22
2022-10-01T20:49:02.801Z,99.04
2022-10-01T20:51:35.983Z,100.00
2022-10-01T20:54:08.590Z,100.00
2022-10-01T20:56:37.831Z,99.93
2022-10-01T20:59:07.812Z,99.82
2022-10-01T21:01:35.287Z,98.06
2022-10-01T21:04:06.190Z,97.78
2022-10-01T21:06:37.291Z,99.09
2022-10-01T21:09:05.326Z,98.52
2022-10-01T21:11:34.582Z,97.02
2022-10-01T21:14:07.330Z,96.80
2022-10-01T21:16:54.587Z,96.25
2022-10-01T21:19:38.995Z,98.22
2022-10-01T21:22:24.924Z,97.50
2022-10-01T21:24:59.421Z,99.70
2022-10-01T21:27:54.349Z,100.00
2022-10-01T21:30:20.178Z,98.85
2022-10-01T21:33:10.619Z,98.60
2022-10-01T21:35:45.660Z,97.98
2022-10-01T21:38:28.582Z,100.00
2022-10-01T21:41:23.723Z,100.00
2022-10-01T21:44:10.673Z,99.01
2022-10-01T21:46:44.167Z,99.17
2022-10-01T21:49:17.013Z,100.00
2022-10-01T21:51:59.317Z,99.76
2022-10-01T21:54:52.059Z,100.00
2022-10-01T21:57:33.019Z,100.00
2022-10-01T22:00:19.426Z,100.00
2022-10-01T22:03:00.152Z,98.99
2022-10-01T22:05:32.577Z,100.00
2022-10-01T22:08:04.388Z,100.00
2022-10-01T22:10:35.740Z,100.00
2022-10-01T22:13:05.904Z,99.97
2022-10-01T22:15:37.170Z,100.00
2022-10-01T22:18:05.402Z,100.00
2022-10-01T22:20:35.429Z,100.00
2022-10-01T22:23:03.151Z,100.00
2022-10-01T22:25:30.375Z,100.00
2022-10-01T22:28:01.397Z,99.03
2022-10-01T22:30:28.897Z,100.00
2022-10-01T22:33:03.989Z,100.00
2022-10-01T22:35:32.460Z,100.00
2022-10-01T22:38:02.877Z,100.00
2022-10-01T22:40:32.913Z,100.00
2022-10-01T22:43:04.798Z,100.00
2022-10-01T22:45:44.871Z,100.00
2022-10-01T22:48:23.588Z,100.00
2022-10-01T22:51:04.367Z,100.00
2022-10-01T22:53:52.912Z,100.00
2022-10-01T22:56:25.018Z,100.00
2022-10-01T22:59:01.801Z,100.00
2022-10-01T23:01:34.060Z,100.00
2022-10-01T23:04:16.695Z,100.00
2022-10-01T23:06:49.807Z,100.00
2022-10-01T23:09:20.219Z,100.00
2022-10-01T23:11:58.520Z,100.00
2022-10-01T23:14:47.703Z,100.00
2022-10-01T23:17:15.986Z,100.00
2022-10-01T23:19:52.184Z,100.00
2022-10-01T23:22:36.739Z,100.00
2022-10-01T23:25:16.671Z,100.00
2022-10-01T23:28:01.881Z,100.00
2022-10-01T23:30:25.572Z,100.00
2022-10-01T23:33:11.994Z,100.00
2022-10-01T23:35:48.947Z,100.00
2022-10-01T23:38:43.480Z,100.00
2022-10-01T23:41:16.569Z,100.00
2022-10-01T23:43:48.512Z,100.00
2022-10-01T23:46:16.921Z,100.00
2022-10-01T23:48:47.478Z,100.00
2022-10-01T23:51:17.975Z,100.00
2022-10-01T23:53:49.342Z,100.00
2022-10-01T23:56:38.282Z,100.00
2022-10-01T23:59:12.197Z,100.00
